createdAt,value
2023-01-26T00:01:23.971Z,52.38
2023-01-26T00:03:51.277Z,49.75
2023-01-26T00:06:19.915Z,51.35
2023-01-26T00:08:49.683Z,57.85
2023-01-26T00:11:18.912Z,58.60
2023-01-26T00:13:45.836Z,56.40
2023-01-26T00:16:14.885Z,54.00
2023-01-26T00:18:42.357Z,58.00
2023-01-26T00:21:12.864Z,61.83
2023-01-26T00:23:39.537Z,56.42
2023-01-26T00:26:07.669Z,52.70
2023-01-26T00:28:34.295Z,58.85
2023-01-26T00:31:10.812Z,64.15
2023-01-26T00:33:37.469Z,60.17
2023-01-26T00:36:04.544Z,65.20
2023-01-26T00:38:31.133Z,64.30
2023-01-26T00:40:57.720Z,62.30
2023-01-26T00:43:24.450Z,57.55
2023-01-26T00:45:50.998Z,62.22
2023-01-26T00:48:17.705Z,57.30
2023-01-26T00:50:44.247Z,58.35
2023-01-26T00:53:10.999Z,58.85
2023-01-26T00:55:37.871Z,55.95
2023-01-26T00:58:07.243Z,49.78
2023-01-26T01:00:35.984Z,60.10
2023-01-26T01:03:02.749Z,43.72
2023-01-26T01:05:31.316Z,39.08
2023-01-26T01:07:57.988Z,43.65
2023-01-26T01:10:25.189Z,35.78
2023-01-26T01:12:51.923Z,35.90
2023-01-26T01:15:18.822Z,37.38
2023-01-26T01:17:45.430Z,41.65
2023-01-26T01:20:12.897Z,39.53
2023-01-26T01:22:39.757Z,38.67
2023-01-26T01:25:06.460Z,37.00
2023-01-26T01:27:34.547Z,37.55
2023-01-26T01:30:02.173Z,36.28
2023-01-26T01:32:28.938Z,36.00
2023-01-26T01:34:55.901Z,39.67
2023-01-26T01:37:22.585Z,37.72
2023-01-26T01:39:49.674Z,41.35
2023-01-26T01:42:16.351Z,38.97
2023-01-26T01:44:43.653Z,40.35
2023-01-26T01:47:21.144Z,43.22
2023-01-26T01:49:51.339Z,38.63
2023-01-26T01:52:26.219Z,36.58
2023-01-26T01:55:13.586Z,39.50
2023-01-26T01:57:56.026Z,39.88
2023-01-26T02:00:23.861Z,33.75
2023-01-26T02:03:13.983Z,34.15
2023-01-26T02:06:01.936Z,36.03
2023-01-26T02:08:36.386Z,30.33
2023-01-26T02:11:17.543Z,30.92
2023-01-26T02:13:47.598Z,27.13
2023-01-26T02:16:14.193Z,28.65
2023-01-26T02:18:40.780Z,28.13
2023-01-26T02:21:11.469Z,23.30
2023-01-26T02:23:54.667Z,25.02
2023-01-26T02:26:27.691Z,24.25
2023-01-26T02:28:55.165Z,24.67
2023-01-26T02:31:23.719Z,23.25
2023-01-26T02:33:50.692Z,23.77
2023-01-26T02:36:23.111Z,22.75
2023-01-26T02:39:02.775Z,20.90
2023-01-26T02:41:47.842Z,19.35
2023-01-26T02:44:15.417Z,18.77
2023-01-26T02:46:42.167Z,19.30
2023-01-26T02:49:27.440Z,20.58
2023-01-26T02:51:54.163Z,19.55
2023-01-26T02:54:38.843Z,14.40
2023-01-26T02:57:05.587Z,18.42
2023-01-26T02:59:32.246Z,15.77
2023-01-26T03:01:59.400Z,13.60
2023-01-26T03:04:26.071Z,15.57
2023-01-26T03:06:52.965Z,14.00
2023-01-26T03:09:19.544Z,13.00
2023-01-26T03:11:46.080Z,15.20
2023-01-26T03:14:14.894Z,15.40
2023-01-26T03:16:42.158Z,13.40
2023-01-26T03:19:30.828Z,19.52
2023-01-26T03:22:17.293Z,16.23
2023-01-26T03:25:02.422Z,13.02
2023-01-26T03:27:38.738Z,16.58
2023-01-26T03:30:06.105Z,13.45
2023-01-26T03:32:32.594Z,16.25
2023-01-26T03:34:59.192Z,14.45
2023-01-26T03:37:25.898Z,13.20
2023-01-26T03:40:11.281Z,16.38
2023-01-26T03:42:57.361Z,13.25
2023-01-26T03:45:42.459Z,12.25
2023-01-26T03:48:30.047Z,12.27
2023-01-26T03:51:16.167Z,12.52
2023-01-26T03:54:02.580Z,15.82
2023-01-26T03:56:32.927Z,13.13
2023-01-26T03:59:09.290Z,12.68
2023-01-26T04:01:40.748Z,13.55
2023-01-26T04:04:27.111Z,11.43
2023-01-26T04:07:12.375Z,13.48
2023-01-26T04:09:41.796Z,11.73
2023-01-26T04:12:10.282Z,12.25
2023-01-26T04:14:55.443Z,11.02
2023-01-26T04:17:40.252Z,11.85
2023-01-26T04:20:25.964Z,11.20
2023-01-26T04:22:52.839Z,11.38
2023-01-26T04:25:21.341Z,13.18
2023-01-26T04:27:47.919Z,11.02
2023-01-26T04:30:16.656Z,10.13
2023-01-26T04:32:43.609Z,11.50
2023-01-26T04:35:10.827Z,12.45
2023-01-26T04:37:38.513Z,10.82
2023-01-26T04:40:06.825Z,10.63
2023-01-26T04:42:33.437Z,12.30
2023-01-26T04:45:00.101Z,12.63
2023-01-26T04:47:28.971Z,10.73
2023-01-26T04:49:55.996Z,10.90
2023-01-26T04:52:22.674Z,10.98
2023-01-26T04:54:49.293Z,12.57
2023-01-26T04:57:15.835Z,12.57
2023-01-26T04:59:42.301Z,12.48
2023-01-26T05:02:09.600Z,11.63
2023-01-26T05:04:36.357Z,13.75
2023-01-26T05:07:02.921Z,14.00
2023-01-26T05:09:29.400Z,11.68
2023-01-26T05:12:15.851Z,11.57
2023-01-26T05:14:42.421Z,15.50
2023-01-26T05:17:08.950Z,13.07
2023-01-26T05:19:35.568Z,11.57
2023-01-26T05:22:01.976Z,12.75
2023-01-26T05:24:28.555Z,13.95
2023-01-26T05:27:15.048Z,11.88
2023-01-26T05:29:41.600Z,14.15
2023-01-26T05:32:08.065Z,12.88
2023-01-26T05:34:36.718Z,12.73
2023-01-26T05:37:03.331Z,12.82
2023-01-26T05:39:30.019Z,12.98
2023-01-26T05:41:56.981Z,13.05
2023-01-26T05:44:29.252Z,14.48
2023-01-26T05:46:55.877Z,13.15
2023-01-26T05:49:22.455Z,14.27
2023-01-26T05:51:48.949Z,14.32
2023-01-26T05:54:15.692Z,14.23
2023-01-26T05:56:42.251Z,13.75
2023-01-26T05:59:09.018Z,15.55
2023-01-26T06:01:35.681Z,13.13
2023-01-26T06:04:02.654Z,13.30
2023-01-26T06:06:29.349Z,14.82
2023-01-26T06:08:56.000Z,12.10
2023-01-26T06:11:22.568Z,16.15
2023-01-26T06:13:49.441Z,16.05
2023-01-26T06:16:16.157Z,14.15
2023-01-26T06:18:42.739Z,12.60
2023-01-26T06:21:09.329Z,15.02
2023-01-26T06:23:35.889Z,13.52
2023-01-26T06:26:03.793Z,14.40
2023-01-26T06:28:30.790Z,14.73
2023-01-26T06:31:01.494Z,13.70
2023-01-26T06:35:56.169Z,14.00
2023-01-26T06:38:22.772Z,12.75
2023-01-26T06:40:49.386Z,14.35
2023-01-26T06:43:16.019Z,12.93
2023-01-26T06:45:42.758Z,14.10
2023-01-26T06:48:09.317Z,13.02
2023-01-26T06:50:36.272Z,12.07
2023-01-26T06:53:26.361Z,14.05
2023-01-26T06:55:52.868Z,12.60
2023-01-26T06:58:19.389Z,14.02
2023-01-26T07:00:45.917Z,12.68
2023-01-26T07:03:12.525Z,14.57
2023-01-26T07:05:39.408Z,12.68
2023-01-26T07:08:08.633Z,14.35
2023-01-26T07:10:36.086Z,12.45
2023-01-26T07:13:04.622Z,12.25
2023-01-26T07:15:31.358Z,14.43
2023-01-26T07:17:58.745Z,12.40
2023-01-26T07:20:25.886Z,13.15
2023-01-26T07:22:52.809Z,12.38
2023-01-26T07:25:19.824Z,13.43
2023-01-26T07:27:46.295Z,14.73
2023-01-26T07:30:14.473Z,11.48
2023-01-26T07:32:41.411Z,16.48
2023-01-26T07:35:08.937Z,9.93
2023-01-26T07:37:35.420Z,11.95
2023-01-26T07:40:02.128Z,12.63
2023-01-26T07:42:30.956Z,11.10
2023-01-26T07:44:57.851Z,9.77
2023-01-26T07:47:24.393Z,10.52
2023-01-26T07:49:51.065Z,10.52
2023-01-26T07:52:17.555Z,12.85
2023-01-26T07:54:44.311Z,11.85
2023-01-26T07:57:12.800Z,11.43
2023-01-26T07:59:39.499Z,11.48
2023-01-26T08:02:06.279Z,12.43
2023-01-26T08:04:32.915Z,11.38
2023-01-26T08:06:59.614Z,9.60
2023-01-26T08:09:26.734Z,13.30
2023-01-26T08:11:53.339Z,12.18
2023-01-26T08:14:19.906Z,12.50
2023-01-26T08:16:46.604Z,13.68
2023-01-26T08:19:13.242Z,11.02
2023-01-26T08:21:39.813Z,10.25
2023-01-26T08:24:06.900Z,12.00
2023-01-26T08:26:33.337Z,11.07
2023-01-26T08:28:59.864Z,10.13
2023-01-26T08:31:28.188Z,12.18
2023-01-26T08:33:56.191Z,10.77
2023-01-26T08:36:23.568Z,12.15
2023-01-26T08:38:51.371Z,10.15
2023-01-26T08:41:18.824Z,10.88
2023-01-26T08:43:45.507Z,10.82
2023-01-26T08:46:12.130Z,11.40
2023-01-26T08:48:38.810Z,10.57
2023-01-26T08:51:06.742Z,13.57
2023-01-26T08:53:35.783Z,12.48
2023-01-26T08:56:03.934Z,14.32
2023-01-26T08:58:31.519Z,13.88
2023-01-26T09:00:58.143Z,12.43
2023-01-26T09:03:24.768Z,12.05
2023-01-26T09:05:51.374Z,12.80
2023-01-26T09:08:17.903Z,15.38
2023-01-26T09:10:45.219Z,14.13
2023-01-26T09:13:12.019Z,11.93
2023-01-26T09:15:38.857Z,14.60
2023-01-26T09:18:05.547Z,15.93
2023-01-26T09:20:32.324Z,12.88
2023-01-26T09:22:58.910Z,15.00
2023-01-26T09:25:25.460Z,18.42
2023-01-26T09:27:51.971Z,13.45
2023-01-26T09:30:18.780Z,13.73
2023-01-26T09:32:45.284Z,15.80
2023-01-26T09:35:14.803Z,15.80
2023-01-26T09:37:43.788Z,15.70
2023-01-26T09:40:18.424Z,17.17
2023-01-26T09:43:01.865Z,13.57
2023-01-26T09:45:40.577Z,15.48
2023-01-26T09:48:30.114Z,15.75
2023-01-26T09:51:13.205Z,14.82
2023-01-26T09:53:47.823Z,17.15
2023-01-26T09:56:20.374Z,18.88
2023-01-26T09:58:56.229Z,17.90
2023-01-26T10:01:31.656Z,14.88
2023-01-26T10:04:03.770Z,16.52
2023-01-26T10:06:32.160Z,17.48
2023-01-26T10:09:14.839Z,15.52
2023-01-26T10:11:46.515Z,18.52
2023-01-26T10:14:21.527Z,16.75
2023-01-26T10:16:51.657Z,18.15
2023-01-26T10:19:45.735Z,18.83
2023-01-26T10:22:25.332Z,17.58
2023-01-26T10:24:53.659Z,21.17
2023-01-26T10:27:20.312Z,15.85
2023-01-26T10:29:46.984Z,20.25
2023-01-26T10:32:17.102Z,19.10
2023-01-26T10:34:46.523Z,17.10
2023-01-26T10:37:29.277Z,21.65
2023-01-26T10:40:01.720Z,19.20
2023-01-26T10:42:31.312Z,17.58
2023-01-26T10:45:02.094Z,19.80
2023-01-26T10:50:24.839Z,16.73
2023-01-26T10:53:03.107Z,20.10
2023-01-26T10:55:31.676Z,16.08
2023-01-26T10:57:58.616Z,20.58
2023-01-26T11:00:35.341Z,20.95
2023-01-26T11:03:14.222Z,20.73
2023-01-26T11:05:41.153Z,19.52
2023-01-26T11:08:32.839Z,19.63
2023-01-26T11:10:59.467Z,15.35
2023-01-26T11:13:26.126Z,16.13
2023-01-26T11:16:20.701Z,15.23
2023-01-26T11:18:58.257Z,16.85
2023-01-26T11:21:33.933Z,13.88
